< < Back
Terminal Aerodrome Forecast


Current Version              Previous Versions:   1  2  3  4  5  6  7  8  9  

Terminal Aerodrome Forecast

733
FTUS42 KTAE 261100
TAFVLD
TAF
KVLD 261120Z 2612/2712 VRB03KT 5SM -RA BR BKN010 BKN050
     FM261300 VRB04KT P6SM SCT080 BKN110
     FM261400 31007KT P6SM SKC
     FM262200 00000KT P6SM SKC=

Latest METAR

297
SAUS70 KWBC 262300 RRE
MTRVLD
METAR KVLD 262253Z 18003KT 10SM CLR 08/04 A3016 RMK AO2 SLP221
T00830039


USA.gov is the U.S. government's official web portal to all federal, state and local government web resources and services.